Young America, Indiana
Current Conditions -  °F | °C
As of 2:55 AM on Thursday 29 Jan 2015 (Local Time) from KGGP Reporting Station
Overcast Overcast  
Wind Chill: 23°   Ceiling: 8000
Heat Index: 34°   Visibility: 10mi
Dew Point: 23°   Wind: 17mph
Humidity: 65%   Direction: 160°SSE
Pressure: 29.86"   Gusts: 21mph
Location:  40.57°N, 86.35°W
Report Text: KGGP 290755Z AUTO 16015G18KT 10SM OVC080 01/M05 A2986 RMK AO2
Loading
Personal Weather Stations






























Interactive Weather Map New forecast layout! Learn more

10-Day Weather Forecast

Advertisements
Track Severe Weather on mobile